CheckWX is a tool to help pilots better visualize weather data.  It is not intended as a substitute for an official pre-flight weather briefing.

14:33:50 UTC

KTHA METAR
Tullahoma Regional Arpt / Wm Northern Field Airport
Tullahoma, Tennessee, USA
Current

19 mins ago

KTHA 221415Z AUTO 00000KT 10SM CLR 19/08 A3022 RMK A01
Observed
Apr-22 @ 14:15 UTC
Visibility
10 SM
Flight Rules
VFR
Cloud Levels
  • Clear skies
Temperature
19°C / 66°F
Dewpoint
C / 46°F
Humidity
49%
Altimeter
30.22" Hg
Pressure
1023.42 hPa
Previous

39 mins ago

KTHA 221355Z AUTO 00000KT 10SM CLR 18/07 A3022 RMK A01
Observed
Apr-22 @ 13:55 UTC
Visibility
10 SM
Flight Rules
VFR
Cloud Levels
  • Clear skies
Temperature
18°C / 64°F
Dewpoint
C / 45°F
Humidity
49%
Altimeter
30.22" Hg
Pressure
1023.42 hPa
Previous

59 mins ago

KTHA 221335Z AUTO 00000KT 10SM CLR 16/07 A3023 RMK A01
Observed
Apr-22 @ 13:35 UTC
Visibility
10 SM
Flight Rules
VFR
Cloud Levels
  • Clear skies
Temperature
16°C / 61°F
Dewpoint
C / 45°F
Humidity
55%
Altimeter
30.23" Hg
Pressure
1023.72 hPa